sensor_id;sensor_type;location;lat;lon;timestamp;P1;durP1;ratioP1;P2;durP2;ratioP2
48375;SDS011;34178;50.904;11.560;2023-02-28T00:00:07;8.55;;;4.53;;
48375;SDS011;34178;50.904;11.560;2023-02-28T00:02:35;10.45;;;5.03;;
48375;SDS011;34178;50.904;11.560;2023-02-28T00:05:02;12.55;;;4.80;;
48375;SDS011;34178;50.904;11.560;2023-02-28T00:07:28;11.52;;;4.80;;
48375;SDS011;34178;50.904;11.560;2023-02-28T00:09:55;9.15;;;4.65;;
48375;SDS011;34178;50.904;11.560;2023-02-28T00:12:20;12.15;;;4.10;;
48375;SDS011;34178;50.904;11.560;2023-02-28T00:14:46;10.40;;;4.28;;
48375;SDS011;34178;50.904;11.560;2023-02-28T00:17:12;10.07;;;4.53;;
48375;SDS011;34178;50.904;11.560;2023-02-28T00:19:37;9.95;;;4.05;;
48375;SDS011;34178;50.904;11.560;2023-02-28T00:22:03;9.90;;;3.80;;
48375;SDS011;34178;50.904;11.560;2023-02-28T00:24:28;8.05;;;3.80;;
48375;SDS011;34178;50.904;11.560;2023-02-28T00:26:54;7.40;;;4.00;;
48375;SDS011;34178;50.904;11.560;2023-02-28T00:29:20;7.70;;;3.70;;
48375;SDS011;34178;50.904;11.560;2023-02-28T00:31:45;8.07;;;3.95;;
48375;SDS011;34178;50.904;11.560;2023-02-28T00:34:11;7.82;;;3.67;;
48375;SDS011;34178;50.904;11.560;2023-02-28T00:36:37;10.38;;;4.00;;
48375;SDS011;34178;50.904;11.560;2023-02-28T00:39:03;8.38;;;4.30;;
48375;SDS011;34178;50.904;11.560;2023-02-28T00:41:28;9.13;;;4.55;;
48375;SDS011;34178;50.904;11.560;2023-02-28T00:43:54;8.40;;;4.28;;
48375;SDS011;34178;50.904;11.560;2023-02-28T00:46:20;10.02;;;5.55;;
48375;SDS011;34178;50.904;11.560;2023-02-28T00:48:45;7.50;;;4.30;;
48375;SDS011;34178;50.904;11.560;2023-02-28T00:51:11;8.32;;;4.15;;
48375;SDS011;34178;50.904;11.560;2023-02-28T00:53:37;9.00;;;4.25;;
48375;SDS011;34178;50.904;11.560;2023-02-28T00:56:03;8.48;;;4.30;;
48375;SDS011;34178;50.904;11.560;2023-02-28T00:58:29;12.32;;;5.30;;
48375;SDS011;34178;50.904;11.560;2023-02-28T01:00:55;9.93;;;4.35;;
48375;SDS011;34178;50.904;11.560;2023-02-28T01:03:21;9.75;;;4.53;;
48375;SDS011;34178;50.904;11.560;2023-02-28T01:05:47;9.95;;;4.88;;
48375;SDS011;34178;50.904;11.560;2023-02-28T01:08:13;14.15;;;7.22;;
48375;SDS011;34178;50.904;11.560;2023-02-28T01:10:40;12.30;;;5.35;;
48375;SDS011;34178;50.904;11.560;2023-02-28T01:13:05;9.32;;;4.50;;
48375;SDS011;34178;50.904;11.560;2023-02-28T01:15:32;8.48;;;5.22;;
48375;SDS011;34178;50.904;11.560;2023-02-28T01:17:58;8.57;;;4.70;;
48375;SDS011;34178;50.904;11.560;2023-02-28T01:20:23;11.82;;;4.85;;
48375;SDS011;34178;50.904;11.560;2023-02-28T01:22:49;9.70;;;4.95;;
48375;SDS011;34178;50.904;11.560;2023-02-28T01:25:15;11.13;;;5.55;;
48375;SDS011;34178;50.904;11.560;2023-02-28T01:27:41;9.95;;;5.03;;
48375;SDS011;34178;50.904;11.560;2023-02-28T01:30:07;12.52;;;5.47;;
48375;SDS011;34178;50.904;11.560;2023-02-28T01:32:33;10.57;;;4.90;;
48375;SDS011;34178;50.904;11.560;2023-02-28T01:34:59;8.02;;;4.72;;
48375;SDS011;34178;50.904;11.560;2023-02-28T01:37:25;9.60;;;5.00;;
48375;SDS011;34178;50.904;11.560;2023-02-28T01:39:51;11.02;;;4.80;;
48375;SDS011;34178;50.904;11.560;2023-02-28T01:42:17;8.45;;;4.95;;
48375;SDS011;34178;50.904;11.560;2023-02-28T01:47:50;12.77;;;5.10;;
48375;SDS011;34178;50.904;11.560;2023-02-28T01:50:20;9.48;;;5.18;;
48375;SDS011;34178;50.904;11.560;2023-02-28T01:52:49;10.50;;;4.78;;
48375;SDS011;34178;50.904;11.560;2023-02-28T01:55:16;9.75;;;5.43;;
48375;SDS011;34178;50.904;11.560;2023-02-28T01:57:48;10.18;;;5.28;;
48375;SDS011;34178;50.904;11.560;2023-02-28T02:00:20;11.65;;;5.05;;
48375;SDS011;34178;50.904;11.560;2023-02-28T02:02:50;10.82;;;5.28;;
48375;SDS011;34178;50.904;11.560;2023-02-28T02:05:19;12.67;;;5.57;;
48375;SDS011;34178;50.904;11.560;2023-02-28T02:07:48;10.80;;;5.15;;
48375;SDS011;34178;50.904;11.560;2023-02-28T02:10:35;13.38;;;5.55;;
48375;SDS011;34178;50.904;11.560;2023-02-28T02:15:56;12.25;;;5.50;;
48375;SDS011;34178;50.904;11.560;2023-02-28T02:18:46;11.18;;;5.15;;
48375;SDS011;34178;50.904;11.560;2023-02-28T02:35:15;12.80;;;6.95;;
48375;SDS011;34178;50.904;11.560;2023-02-28T02:37:51;13.93;;;6.45;;
48375;SDS011;34178;50.904;11.560;2023-02-28T02:40:29;12.35;;;6.10;;
48375;SDS011;34178;50.904;11.560;2023-02-28T02:43:01;11.30;;;5.93;;
48375;SDS011;34178;50.904;11.560;2023-02-28T02:48:10;11.90;;;6.20;;
48375;SDS011;34178;50.904;11.560;2023-02-28T02:50:49;15.63;;;6.20;;
48375;SDS011;34178;50.904;11.560;2023-02-28T02:53:21;12.77;;;6.03;;
48375;SDS011;34178;50.904;11.560;2023-02-28T02:55:53;11.73;;;5.90;;
48375;SDS011;34178;50.904;11.560;2023-02-28T02:58:22;11.63;;;5.90;;
48375;SDS011;34178;50.904;11.560;2023-02-28T03:00:56;14.02;;;8.48;;
48375;SDS011;34178;50.904;11.560;2023-02-28T03:03:24;13.57;;;7.43;;
48375;SDS011;34178;50.904;11.560;2023-02-28T03:05:55;14.18;;;8.70;;
48375;SDS011;34178;50.904;11.560;2023-02-28T03:08:22;14.57;;;7.63;;
48375;SDS011;34178;50.904;11.560;2023-02-28T03:10:49;13.68;;;7.38;;
48375;SDS011;34178;50.904;11.560;2023-02-28T03:23:52;12.52;;;7.10;;
48375;SDS011;34178;50.904;11.560;2023-02-28T03:26:29;14.02;;;8.10;;
48375;SDS011;34178;50.904;11.560;2023-02-28T03:29:05;14.13;;;7.97;;
48375;SDS011;34178;50.904;11.560;2023-02-28T03:34:37;12.35;;;6.68;;
48375;SDS011;34178;50.904;11.560;2023-02-28T03:37:14;14.10;;;6.75;;
48375;SDS011;34178;50.904;11.560;2023-02-28T03:39:45;13.05;;;6.75;;
48375;SDS011;34178;50.904;11.560;2023-02-28T03:42:15;16.05;;;6.50;;
48375;SDS011;34178;50.904;11.560;2023-02-28T03:44:46;17.05;;;6.97;;
48375;SDS011;34178;50.904;11.560;2023-02-28T03:47:27;11.73;;;6.65;;
48375;SDS011;34178;50.904;11.560;2023-02-28T03:50:05;11.70;;;6.07;;
48375;SDS011;34178;50.904;11.560;2023-02-28T03:52:38;11.25;;;6.47;;
48375;SDS011;34178;50.904;11.560;2023-02-28T03:55:17;15.00;;;6.75;;
48375;SDS011;34178;50.904;11.560;2023-02-28T04:00:20;12.43;;;6.82;;
48375;SDS011;34178;50.904;11.560;2023-02-28T04:02:53;13.82;;;7.10;;
48375;SDS011;34178;50.904;11.560;2023-02-28T04:05:19;17.27;;;7.53;;
48375;SDS011;34178;50.904;11.560;2023-02-28T04:07:46;13.32;;;6.97;;
48375;SDS011;34178;50.904;11.560;2023-02-28T04:10:13;13.27;;;6.70;;
48375;SDS011;34178;50.904;11.560;2023-02-28T04:12:40;13.18;;;6.97;;
48375;SDS011;34178;50.904;11.560;2023-02-28T04:15:06;20.58;;;11.30;;
48375;SDS011;34178;50.904;11.560;2023-02-28T04:17:32;19.95;;;10.70;;
48375;SDS011;34178;50.904;11.560;2023-02-28T04:19:58;20.48;;;9.20;;
48375;SDS011;34178;50.904;11.560;2023-02-28T04:22:23;10.93;;;6.60;;
48375;SDS011;34178;50.904;11.560;2023-02-28T04:24:52;13.30;;;8.18;;
48375;SDS011;34178;50.904;11.560;2023-02-28T04:27:20;15.18;;;9.55;;
48375;SDS011;34178;50.904;11.560;2023-02-28T04:29:46;13.57;;;8.18;;
48375;SDS011;34178;50.904;11.560;2023-02-28T04:32:11;13.32;;;8.40;;
48375;SDS011;34178;50.904;11.560;2023-02-28T04:34:37;12.05;;;7.18;;
48375;SDS011;34178;50.904;11.560;2023-02-28T04:37:04;14.52;;;7.10;;
48375;SDS011;34178;50.904;11.560;2023-02-28T04:39:34;13.57;;;7.20;;
48375;SDS011;34178;50.904;11.560;2023-02-28T04:42:00;14.45;;;6.45;;
48375;SDS011;34178;50.904;11.560;2023-02-28T04:44:26;17.95;;;9.05;;
48375;SDS011;34178;50.904;11.560;2023-02-28T04:46:52;15.05;;;8.40;;
48375;SDS011;34178;50.904;11.560;2023-02-28T04:51:45;16.40;;;9.30;;
48375;SDS011;34178;50.904;11.560;2023-02-28T04:54:11;20.42;;;10.70;;
48375;SDS011;34178;50.904;11.560;2023-02-28T04:56:38;16.92;;;9.40;;
48375;SDS011;34178;50.904;11.560;2023-02-28T04:59:03;19.75;;;9.30;;
48375;SDS011;34178;50.904;11.560;2023-02-28T05:01:30;17.25;;;8.55;;
48375;SDS011;34178;50.904;11.560;2023-02-28T05:03:58;13.68;;;7.75;;
48375;SDS011;34178;50.904;11.560;2023-02-28T05:06:26;18.88;;;9.13;;
48375;SDS011;34178;50.904;11.560;2023-02-28T05:08:53;23.92;;;11.27;;
48375;SDS011;34178;50.904;11.560;2023-02-28T05:13:46;37.70;;;19.10;;
48375;SDS011;34178;50.904;11.560;2023-02-28T05:16:13;18.27;;;8.88;;
48375;SDS011;34178;50.904;11.560;2023-02-28T05:18:39;22.42;;;10.68;;
48375;SDS011;34178;50.904;11.560;2023-02-28T05:21:05;21.13;;;8.88;;
48375;SDS011;34178;50.904;11.560;2023-02-28T05:23:30;16.02;;;7.97;;
48375;SDS011;34178;50.904;11.560;2023-02-28T05:25:56;24.10;;;7.50;;
48375;SDS011;34178;50.904;11.560;2023-02-28T05:28:22;13.25;;;7.13;;
48375;SDS011;34178;50.904;11.560;2023-02-28T05:30:47;19.38;;;9.40;;
48375;SDS011;34178;50.904;11.560;2023-02-28T05:33:14;13.23;;;7.68;;
48375;SDS011;34178;50.904;11.560;2023-02-28T05:35:40;13.93;;;7.47;;
48375;SDS011;34178;50.904;11.560;2023-02-28T05:38:07;14.98;;;7.65;;
48375;SDS011;34178;50.904;11.560;2023-02-28T05:40:33;16.25;;;8.60;;
48375;SDS011;34178;50.904;11.560;2023-02-28T05:42:59;13.32;;;7.43;;
48375;SDS011;34178;50.904;11.560;2023-02-28T05:45:25;13.43;;;6.50;;
48375;SDS011;34178;50.904;11.560;2023-02-28T05:47:54;12.18;;;6.65;;
48375;SDS011;34178;50.904;11.560;2023-02-28T05:50:20;16.17;;;9.40;;
48375;SDS011;34178;50.904;11.560;2023-02-28T05:52:52;27.80;;;13.45;;
48375;SDS011;34178;50.904;11.560;2023-02-28T05:55:17;20.92;;;10.68;;
48375;SDS011;34178;50.904;11.560;2023-02-28T05:57:43;19.27;;;9.73;;
48375;SDS011;34178;50.904;11.560;2023-02-28T06:00:09;20.83;;;11.63;;
48375;SDS011;34178;50.904;11.560;2023-02-28T06:02:36;58.05;;;29.15;;
48375;SDS011;34178;50.904;11.560;2023-02-28T06:05:03;32.03;;;14.48;;
48375;SDS011;34178;50.904;11.560;2023-02-28T06:07:29;30.65;;;13.95;;
48375;SDS011;34178;50.904;11.560;2023-02-28T06:09:55;35.67;;;17.08;;
48375;SDS011;34178;50.904;11.560;2023-02-28T06:12:20;32.70;;;16.05;;
48375;SDS011;34178;50.904;11.560;2023-02-28T06:14:46;26.55;;;12.23;;
48375;SDS011;34178;50.904;11.560;2023-02-28T06:17:12;18.38;;;8.63;;
48375;SDS011;34178;50.904;11.560;2023-02-28T06:19:38;28.95;;;13.90;;
48375;SDS011;34178;50.904;11.560;2023-02-28T06:22:04;24.63;;;11.57;;
48375;SDS011;34178;50.904;11.560;2023-02-28T06:24:30;45.97;;;18.95;;
48375;SDS011;34178;50.904;11.560;2023-02-28T06:26:56;34.53;;;15.95;;
48375;SDS011;34178;50.904;11.560;2023-02-28T06:29:24;18.23;;;9.38;;
48375;SDS011;34178;50.904;11.560;2023-02-28T06:31:49;21.85;;;12.25;;
48375;SDS011;34178;50.904;11.560;2023-02-28T06:34:15;15.25;;;7.35;;
48375;SDS011;34178;50.904;11.560;2023-02-28T06:36:42;106.70;;;54.92;;
48375;SDS011;34178;50.904;11.560;2023-02-28T06:39:08;33.47;;;22.98;;
48375;SDS011;34178;50.904;11.560;2023-02-28T06:41:34;30.38;;;19.95;;
48375;SDS011;34178;50.904;11.560;2023-02-28T06:44:03;32.38;;;21.58;;
48375;SDS011;34178;50.904;11.560;2023-02-28T06:46:30;47.78;;;36.97;;
48375;SDS011;34178;50.904;11.560;2023-02-28T06:48:57;21.20;;;12.95;;
48375;SDS011;34178;50.904;11.560;2023-02-28T06:51:23;27.95;;;15.85;;
48375;SDS011;34178;50.904;11.560;2023-02-28T06:53:49;24.30;;;14.30;;
48375;SDS011;34178;50.904;11.560;2023-02-28T06:56:16;30.40;;;15.65;;
48375;SDS011;34178;50.904;11.560;2023-02-28T06:58:45;21.35;;;13.98;;
48375;SDS011;34178;50.904;11.560;2023-02-28T07:01:13;20.42;;;11.35;;
48375;SDS011;34178;50.904;11.560;2023-02-28T07:03:39;16.17;;;8.57;;
48375;SDS011;34178;50.904;11.560;2023-02-28T07:06:05;17.15;;;10.02;;
48375;SDS011;34178;50.904;11.560;2023-02-28T07:08:32;17.52;;;9.75;;
48375;SDS011;34178;50.904;11.560;2023-02-28T07:10:58;20.85;;;10.43;;
48375;SDS011;34178;50.904;11.560;2023-02-28T07:13:23;18.50;;;9.95;;
48375;SDS011;34178;50.904;11.560;2023-02-28T07:15:56;46.60;;;17.80;;
48375;SDS011;34178;50.904;11.560;2023-02-28T07:18:24;22.13;;;11.18;;
48375;SDS011;34178;50.904;11.560;2023-02-28T07:20:50;25.80;;;13.82;;
48375;SDS011;34178;50.904;11.560;2023-02-28T07:23:16;25.70;;;14.63;;
48375;SDS011;34178;50.904;11.560;2023-02-28T07:25:42;40.08;;;23.75;;
48375;SDS011;34178;50.904;11.560;2023-02-28T07:28:08;26.75;;;16.85;;
48375;SDS011;34178;50.904;11.560;2023-02-28T07:30:34;29.63;;;14.55;;
48375;SDS011;34178;50.904;11.560;2023-02-28T07:33:00;49.45;;;23.38;;
48375;SDS011;34178;50.904;11.560;2023-02-28T07:35:25;37.97;;;18.15;;
48375;SDS011;34178;50.904;11.560;2023-02-28T07:37:51;69.10;;;36.28;;
48375;SDS011;34178;50.904;11.560;2023-02-28T07:40:17;30.38;;;17.92;;
48375;SDS011;34178;50.904;11.560;2023-02-28T07:42:43;23.75;;;12.23;;
48375;SDS011;34178;50.904;11.560;2023-02-28T07:45:09;24.35;;;13.32;;
48375;SDS011;34178;50.904;11.560;2023-02-28T07:47:39;52.53;;;25.38;;
48375;SDS011;34178;50.904;11.560;2023-02-28T07:50:07;89.65;;;43.30;;
48375;SDS011;34178;50.904;11.560;2023-02-28T07:52:36;137.05;;;63.60;;
48375;SDS011;34178;50.904;11.560;2023-02-28T07:55:02;76.78;;;40.25;;
48375;SDS011;34178;50.904;11.560;2023-02-28T07:57:29;18.60;;;10.02;;
48375;SDS011;34178;50.904;11.560;2023-02-28T07:59:55;17.42;;;9.98;;
48375;SDS011;34178;50.904;11.560;2023-02-28T08:02:20;22.10;;;12.88;;
48375;SDS011;34178;50.904;11.560;2023-02-28T08:04:46;19.40;;;10.50;;
48375;SDS011;34178;50.904;11.560;2023-02-28T08:07:13;43.25;;;18.55;;
48375;SDS011;34178;50.904;11.560;2023-02-28T08:09:39;24.33;;;13.43;;
48375;SDS011;34178;50.904;11.560;2023-02-28T08:12:06;25.73;;;13.40;;
48375;SDS011;34178;50.904;11.560;2023-02-28T08:14:32;38.20;;;19.92;;
48375;SDS011;34178;50.904;11.560;2023-02-28T08:16:58;22.20;;;12.15;;
48375;SDS011;34178;50.904;11.560;2023-02-28T08:19:24;16.05;;;8.50;;
48375;SDS011;34178;50.904;11.560;2023-02-28T08:21:49;17.85;;;7.57;;
48375;SDS011;34178;50.904;11.560;2023-02-28T08:24:15;15.27;;;7.93;;
48375;SDS011;34178;50.904;11.560;2023-02-28T08:26:41;15.20;;;7.47;;
48375;SDS011;34178;50.904;11.560;2023-02-28T08:29:06;14.70;;;7.55;;
48375;SDS011;34178;50.904;11.560;2023-02-28T08:31:32;14.88;;;7.45;;
48375;SDS011;34178;50.904;11.560;2023-02-28T08:33:58;14.68;;;8.20;;
48375;SDS011;34178;50.904;11.560;2023-02-28T08:36:24;17.10;;;7.40;;
48375;SDS011;34178;50.904;11.560;2023-02-28T08:38:51;16.40;;;7.30;;
48375;SDS011;34178;50.904;11.560;2023-02-28T08:41:17;15.57;;;7.90;;
48375;SDS011;34178;50.904;11.560;2023-02-28T08:43:42;15.98;;;7.93;;
48375;SDS011;34178;50.904;11.560;2023-02-28T08:46:10;15.57;;;7.97;;
48375;SDS011;34178;50.904;11.560;2023-02-28T08:48:38;17.08;;;7.78;;
48375;SDS011;34178;50.904;11.560;2023-02-28T08:51:06;16.38;;;7.82;;
48375;SDS011;34178;50.904;11.560;2023-02-28T08:53:34;17.15;;;7.65;;
48375;SDS011;34178;50.904;11.560;2023-02-28T08:56:05;17.27;;;7.40;;
48375;SDS011;34178;50.904;11.560;2023-02-28T08:58:33;19.33;;;8.27;;
48375;SDS011;34178;50.904;11.560;2023-02-28T09:00:59;14.95;;;7.80;;
48375;SDS011;34178;50.904;11.560;2023-02-28T09:03:25;19.30;;;7.97;;
48375;SDS011;34178;50.904;11.560;2023-02-28T09:05:53;16.80;;;7.28;;
48375;SDS011;34178;50.904;11.560;2023-02-28T09:08:20;17.85;;;7.45;;
48375;SDS011;34178;50.904;11.560;2023-02-28T09:10:45;18.02;;;7.22;;
48375;SDS011;34178;50.904;11.560;2023-02-28T09:13:12;14.23;;;7.28;;
48375;SDS011;34178;50.904;11.560;2023-02-28T09:15:38;13.60;;;7.22;;
48375;SDS011;34178;50.904;11.560;2023-02-28T09:18:04;16.35;;;6.95;;
48375;SDS011;34178;50.904;11.560;2023-02-28T09:20:29;16.98;;;7.68;;
48375;SDS011;34178;50.904;11.560;2023-02-28T09:22:55;15.15;;;6.78;;
48375;SDS011;34178;50.904;11.560;2023-02-28T09:25:21;11.77;;;6.22;;
48375;SDS011;34178;50.904;11.560;2023-02-28T09:27:46;15.00;;;7.03;;
48375;SDS011;34178;50.904;11.560;2023-02-28T09:30:13;14.30;;;6.57;;
48375;SDS011;34178;50.904;11.560;2023-02-28T09:32:39;12.98;;;6.43;;
48375;SDS011;34178;50.904;11.560;2023-02-28T09:35:05;12.30;;;6.82;;
48375;SDS011;34178;50.904;11.560;2023-02-28T09:37:31;12.50;;;6.50;;
48375;SDS011;34178;50.904;11.560;2023-02-28T09:39:57;11.75;;;5.57;;
48375;SDS011;34178;50.904;11.560;2023-02-28T09:42:41;13.15;;;5.95;;
48375;SDS011;34178;50.904;11.560;2023-02-28T09:45:11;11.50;;;5.53;;
48375;SDS011;34178;50.904;11.560;2023-02-28T09:47:59;11.38;;;5.35;;
48375;SDS011;34178;50.904;11.560;2023-02-28T09:50:39;13.00;;;5.45;;
48375;SDS011;34178;50.904;11.560;2023-02-28T09:53:19;13.13;;;5.43;;
48375;SDS011;34178;50.904;11.560;2023-02-28T09:56:04;13.40;;;5.72;;
48375;SDS011;34178;50.904;11.560;2023-02-28T09:58:53;10.38;;;5.15;;
48375;SDS011;34178;50.904;11.560;2023-02-28T10:01:23;10.60;;;5.20;;
48375;SDS011;34178;50.904;11.560;2023-02-28T10:06:51;10.02;;;5.72;;
48375;SDS011;34178;50.904;11.560;2023-02-28T10:11:50;10.93;;;6.13;;
48375;SDS011;34178;50.904;11.560;2023-02-28T10:22:17;12.38;;;5.93;;
48375;SDS011;34178;50.904;11.560;2023-02-28T10:24:53;9.82;;;5.25;;
48375;SDS011;34178;50.904;11.560;2023-02-28T10:27:25;9.43;;;5.32;;
48375;SDS011;34178;50.904;11.560;2023-02-28T10:29:54;12.32;;;5.95;;
48375;SDS011;34178;50.904;11.560;2023-02-28T10:32:23;10.07;;;5.55;;
48375;SDS011;34178;50.904;11.560;2023-02-28T10:37:49;11.18;;;6.07;;
48375;SDS011;34178;50.904;11.560;2023-02-28T10:45:24;9.60;;;5.43;;
48375;SDS011;34178;50.904;11.560;2023-02-28T10:50:27;13.90;;;6.32;;
48375;SDS011;34178;50.904;11.560;2023-02-28T10:56:33;11.88;;;6.05;;
48375;SDS011;34178;50.904;11.560;2023-02-28T11:01:18;10.88;;;5.97;;
48375;SDS011;34178;50.904;11.560;2023-02-28T11:03:50;17.80;;;6.93;;
48375;SDS011;34178;50.904;11.560;2023-02-28T11:08:52;11.93;;;6.45;;
48375;SDS011;34178;50.904;11.560;2023-02-28T11:11:20;12.38;;;6.70;;
48375;SDS011;34178;50.904;11.560;2023-02-28T11:13:48;17.08;;;6.78;;
48375;SDS011;34178;50.904;11.560;2023-02-28T11:16:17;12.90;;;6.78;;
48375;SDS011;34178;50.904;11.560;2023-02-28T11:18:51;16.15;;;6.65;;
48375;SDS011;34178;50.904;11.560;2023-02-28T11:21:35;13.35;;;7.68;;
48375;SDS011;34178;50.904;11.560;2023-02-28T11:24:26;13.30;;;7.55;;
48375;SDS011;34178;50.904;11.560;2023-02-28T11:26:56;14.52;;;7.28;;
48375;SDS011;34178;50.904;11.560;2023-02-28T11:34:27;13.60;;;6.75;;
48375;SDS011;34178;50.904;11.560;2023-02-28T11:36:54;12.15;;;6.60;;
48375;SDS011;34178;50.904;11.560;2023-02-28T11:39:22;15.68;;;7.88;;
48375;SDS011;34178;50.904;11.560;2023-02-28T11:47:19;16.35;;;7.25;;
48375;SDS011;34178;50.904;11.560;2023-02-28T11:53:02;13.43;;;7.10;;
48375;SDS011;34178;50.904;11.560;2023-02-28T12:11:58;16.55;;;7.82;;
48375;SDS011;34178;50.904;11.560;2023-02-28T12:14:53;12.30;;;7.43;;
48375;SDS011;34178;50.904;11.560;2023-02-28T12:17:33;15.07;;;7.75;;
48375;SDS011;34178;50.904;11.560;2023-02-28T12:28:24;13.32;;;7.80;;
48375;SDS011;34178;50.904;11.560;2023-02-28T12:30:54;15.02;;;7.57;;
48375;SDS011;34178;50.904;11.560;2023-02-28T12:33:26;13.38;;;8.13;;
48375;SDS011;34178;50.904;11.560;2023-02-28T12:36:00;14.93;;;8.10;;
48375;SDS011;34178;50.904;11.560;2023-02-28T12:38:36;12.65;;;7.85;;
48375;SDS011;34178;50.904;11.560;2023-02-28T12:41:11;13.65;;;7.70;;
48375;SDS011;34178;50.904;11.560;2023-02-28T12:43:42;13.48;;;7.82;;
48375;SDS011;34178;50.904;11.560;2023-02-28T12:48:42;15.02;;;8.52;;
48375;SDS011;34178;50.904;11.560;2023-02-28T12:51:11;12.38;;;7.80;;
48375;SDS011;34178;50.904;11.560;2023-02-28T12:56:16;16.02;;;7.70;;
48375;SDS011;34178;50.904;11.560;2023-02-28T13:05:46;11.80;;;7.72;;
48375;SDS011;34178;50.904;11.560;2023-02-28T13:07:58;12.77;;;7.50;;
48375;SDS011;34178;50.904;11.560;2023-02-28T13:10:48;12.70;;;7.22;;
48375;SDS011;34178;50.904;11.560;2023-02-28T13:13:22;12.73;;;7.35;;
48375;SDS011;34178;50.904;11.560;2023-02-28T13:16:01;15.40;;;7.70;;
48375;SDS011;34178;50.904;11.560;2023-02-28T13:18:37;11.25;;;6.70;;
48375;SDS011;34178;50.904;11.560;2023-02-28T13:24:09;14.32;;;7.68;;
48375;SDS011;34178;50.904;11.560;2023-02-28T13:34:34;12.25;;;6.80;;
48375;SDS011;34178;50.904;11.560;2023-02-28T13:47:32;12.18;;;8.02;;
48375;SDS011;34178;50.904;11.560;2023-02-28T13:50:15;11.18;;;7.50;;
48375;SDS011;34178;50.904;11.560;2023-02-28T13:52:49;16.05;;;7.60;;
48375;SDS011;34178;50.904;11.560;2023-02-28T14:06:26;12.50;;;7.88;;
48375;SDS011;34178;50.904;11.560;2023-02-28T14:09:37;13.07;;;7.97;;
48375;SDS011;34178;50.904;11.560;2023-02-28T14:11:44;13.93;;;8.02;;
48375;SDS011;34178;50.904;11.560;2023-02-28T14:14:56;13.45;;;8.02;;
48375;SDS011;34178;50.904;11.560;2023-02-28T14:16:59;13.57;;;7.63;;
48375;SDS011;34178;50.904;11.560;2023-02-28T14:19:30;13.45;;;8.10;;
48375;SDS011;34178;50.904;11.560;2023-02-28T14:33:04;11.18;;;7.93;;
48375;SDS011;34178;50.904;11.560;2023-02-28T14:35:45;12.85;;;7.35;;
48375;SDS011;34178;50.904;11.560;2023-02-28T14:38:42;11.57;;;8.05;;
48375;SDS011;34178;50.904;11.560;2023-02-28T14:41:15;12.18;;;7.53;;
48375;SDS011;34178;50.904;11.560;2023-02-28T14:43:50;11.95;;;7.50;;
48375;SDS011;34178;50.904;11.560;2023-02-28T14:46:18;13.60;;;8.05;;
48375;SDS011;34178;50.904;11.560;2023-02-28T14:48:45;12.25;;;7.55;;
48375;SDS011;34178;50.904;11.560;2023-02-28T14:51:18;13.57;;;8.13;;
48375;SDS011;34178;50.904;11.560;2023-02-28T14:53:48;12.45;;;7.72;;
48375;SDS011;34178;50.904;11.560;2023-02-28T14:56:27;15.63;;;7.95;;
48375;SDS011;34178;50.904;11.560;2023-02-28T14:58:57;12.25;;;7.78;;
48375;SDS011;34178;50.904;11.560;2023-02-28T15:01:24;11.73;;;7.65;;
48375;SDS011;34178;50.904;11.560;2023-02-28T15:03:57;13.80;;;8.32;;
48375;SDS011;34178;50.904;11.560;2023-02-28T15:06:26;13.93;;;8.40;;
48375;SDS011;34178;50.904;11.560;2023-02-28T15:09:13;15.65;;;8.38;;
48375;SDS011;34178;50.904;11.560;2023-02-28T15:11:40;12.15;;;8.32;;
48375;SDS011;34178;50.904;11.560;2023-02-28T15:14:06;12.20;;;8.25;;
48375;SDS011;34178;50.904;11.560;2023-02-28T15:16:39;15.93;;;8.93;;
48375;SDS011;34178;50.904;11.560;2023-02-28T15:19:12;16.10;;;8.05;;
48375;SDS011;34178;50.904;11.560;2023-02-28T15:21:55;14.13;;;8.45;;
48375;SDS011;34178;50.904;11.560;2023-02-28T15:27:24;12.95;;;8.38;;
48375;SDS011;34178;50.904;11.560;2023-02-28T15:29:58;18.40;;;8.90;;
48375;SDS011;34178;50.904;11.560;2023-02-28T15:32:30;15.73;;;9.02;;
48375;SDS011;34178;50.904;11.560;2023-02-28T15:35:43;17.70;;;10.85;;
48375;SDS011;34178;50.904;11.560;2023-02-28T15:37:54;15.70;;;9.30;;
48375;SDS011;34178;50.904;11.560;2023-02-28T15:40:42;20.75;;;11.23;;
48375;SDS011;34178;50.904;11.560;2023-02-28T15:43:17;13.88;;;9.07;;
48375;SDS011;34178;50.904;11.560;2023-02-28T15:46:00;15.65;;;9.73;;
48375;SDS011;34178;50.904;11.560;2023-02-28T15:48:53;20.08;;;11.63;;
48375;SDS011;34178;50.904;11.560;2023-02-28T15:51:33;17.17;;;9.13;;
48375;SDS011;34178;50.904;11.560;2023-02-28T15:54:04;17.90;;;10.23;;
48375;SDS011;34178;50.904;11.560;2023-02-28T15:56:33;17.98;;;9.73;;
48375;SDS011;34178;50.904;11.560;2023-02-28T15:59:05;16.05;;;9.70;;
48375;SDS011;34178;50.904;11.560;2023-02-28T16:01:34;14.98;;;8.80;;
48375;SDS011;34178;50.904;11.560;2023-02-28T16:04:01;15.82;;;9.55;;
48375;SDS011;34178;50.904;11.560;2023-02-28T16:09:08;15.57;;;9.48;;
48375;SDS011;34178;50.904;11.560;2023-02-28T16:11:38;16.30;;;10.18;;
48375;SDS011;34178;50.904;11.560;2023-02-28T16:14:18;18.92;;;9.90;;
48375;SDS011;34178;50.904;11.560;2023-02-28T16:16:49;14.98;;;9.18;;
48375;SDS011;34178;50.904;11.560;2023-02-28T16:19:20;19.00;;;11.80;;
48375;SDS011;34178;50.904;11.560;2023-02-28T16:21:46;16.48;;;10.35;;
48375;SDS011;34178;50.904;11.560;2023-02-28T16:24:13;19.50;;;10.63;;
48375;SDS011;34178;50.904;11.560;2023-02-28T16:26:39;16.45;;;10.73;;
48375;SDS011;34178;50.904;11.560;2023-02-28T16:29:06;19.23;;;11.07;;
48375;SDS011;34178;50.904;11.560;2023-02-28T16:31:35;17.77;;;10.48;;
48375;SDS011;34178;50.904;11.560;2023-02-28T16:34:03;20.38;;;10.65;;
48375;SDS011;34178;50.904;11.560;2023-02-28T16:36:29;24.05;;;12.10;;
48375;SDS011;34178;50.904;11.560;2023-02-28T16:38:54;23.83;;;11.63;;
48375;SDS011;34178;50.904;11.560;2023-02-28T16:41:22;17.70;;;11.25;;
48375;SDS011;34178;50.904;11.560;2023-02-28T16:46:17;19.92;;;10.48;;
48375;SDS011;34178;50.904;11.560;2023-02-28T16:48:44;18.25;;;10.90;;
48375;SDS011;34178;50.904;11.560;2023-02-28T16:51:17;16.15;;;10.60;;
48375;SDS011;34178;50.904;11.560;2023-02-28T16:53:43;23.35;;;11.95;;
48375;SDS011;34178;50.904;11.560;2023-02-28T16:56:13;20.50;;;11.93;;
48375;SDS011;34178;50.904;11.560;2023-02-28T16:58:43;44.30;;;18.63;;
48375;SDS011;34178;50.904;11.560;2023-02-28T17:01:10;25.67;;;14.20;;
48375;SDS011;34178;50.904;11.560;2023-02-28T17:03:36;23.23;;;11.90;;
48375;SDS011;34178;50.904;11.560;2023-02-28T17:06:02;21.73;;;12.02;;
48375;SDS011;34178;50.904;11.560;2023-02-28T17:08:29;20.85;;;11.80;;
48375;SDS011;34178;50.904;11.560;2023-02-28T17:10:57;19.00;;;11.85;;
48375;SDS011;34178;50.904;11.560;2023-02-28T17:13:23;19.25;;;11.25;;
48375;SDS011;34178;50.904;11.560;2023-02-28T17:15:49;19.30;;;11.73;;
48375;SDS011;34178;50.904;11.560;2023-02-28T17:18:15;18.52;;;11.30;;
48375;SDS011;34178;50.904;11.560;2023-02-28T17:20:46;18.13;;;10.50;;
48375;SDS011;34178;50.904;11.560;2023-02-28T17:23:12;21.63;;;11.65;;
48375;SDS011;34178;50.904;11.560;2023-02-28T17:25:38;19.98;;;11.32;;
48375;SDS011;34178;50.904;11.560;2023-02-28T17:28:03;22.05;;;10.75;;